Time;durP1;ratioP1;P1;durP2;ratioP2;P2;SDS_P1;SDS_P2;PMS_P1;PMS_P2;Temp;Humidity;BMP_temperature;BMP_pressure;BME280_temperature;BME280_humidity;BME280_pressure;Samples;Min_cycle;Max_cycle;Signal;HPM_P1;HPM_P2
2022/01/11 00:00:54;;;;;;;10.00;6.10;;;;;;;;;;1996586;28;20664;-71
2022/01/11 00:01:53;;;;;;;11.10;6.87;;;;;;;;;;1997075;28;20192;-72
2022/01/11 00:02:53;;;;;;;10.47;6.40;;;;;;;;;;1997028;28;20398;-72
2022/01/11 00:03:53;;;;;;;12.40;7.20;;;;;;;;;;1997048;28;20401;-72
2022/01/11 00:04:52;;;;;;;11.68;7.65;;;;;;;;;;1997114;28;20170;-72
2022/01/11 00:05:57;;;;;;;10.60;6.80;;;;;;;;;;1997020;28;20535;-71
2022/01/11 00:06:58;;;;;;;13.20;6.75;;;;;;;;;;1996991;28;20433;-72
2022/01/11 00:07:57;;;;;;;12.32;6.72;;;;;;;;;;1997039;28;20684;-72
2022/01/11 00:09:00;;;;;;;12.18;6.53;;;;;;;;;;1996406;28;20212;-72
2022/01/11 00:10:01;;;;;;;9.50;6.75;;;;;;;;;;1996722;28;20673;-72
2022/01/11 00:11:05;;;;;;;9.93;6.43;;;;;;;;;;1997062;28;20170;-72
2022/01/11 00:12:06;;;;;;;10.73;6.72;;;;;;;;;;1997149;28;20241;-72
2022/01/11 00:13:05;;;;;;;12.00;7.25;;;;;;;;;;1997032;28;20173;-72
2022/01/11 00:14:04;;;;;;;10.03;6.77;;;;;;;;;;1997004;28;20181;-72
2022/01/11 00:15:03;;;;;;;13.53;7.40;;;;;;;;;;1997006;28;20401;-72
2022/01/11 00:16:03;;;;;;;14.05;7.72;;;;;;;;;;1996987;28;20499;-72
2022/01/11 00:17:02;;;;;;;9.80;6.22;;;;;;;;;;1996220;28;20236;-71
2022/01/11 00:18:01;;;;;;;10.20;6.63;;;;;;;;;;1996419;28;20174;-72
2022/01/11 00:19:05;;;;;;;11.50;6.87;;;;;;;;;;1997000;28;20256;-72
2022/01/11 00:20:06;;;;;;;10.73;6.72;;;;;;;;;;1996279;28;20508;-72
2022/01/11 00:21:05;;;;;;;10.23;6.05;;;;;;;;;;1996376;28;20189;-72
2022/01/11 00:22:07;;;;;;;10.33;6.30;;;;;;;;;;1997001;28;20178;-72
2022/01/11 00:25:24;;;;;;;10.80;6.65;;;;;;;;;;1996955;28;20189;-72
2022/01/11 00:26:23;;;;;;;9.37;6.20;;;;;;;;;;1996813;28;20197;-72
2022/01/11 00:27:22;;;;;;;8.90;6.17;;;;;;;;;;1996235;28;20451;-72
2022/01/11 00:28:21;;;;;;;9.07;5.97;;;;;;;;;;1996362;28;20710;-72
2022/01/11 00:29:20;;;;;;;8.82;5.90;;;;;;;;;;1996902;28;20447;-72
2022/01/11 00:30:20;;;;;;;11.20;7.07;;;;;;;;;;1996938;28;20649;-72
2022/01/11 00:31:19;;;;;;;10.13;6.28;;;;;;;;;;1997005;28;20405;-72
2022/01/11 00:32:27;;;;;;;8.60;6.00;;;;;;;;;;1996268;28;20181;-72
2022/01/11 00:33:38;;;;;;;7.88;6.00;;;;;;;;;;1996345;28;20205;-72
2022/01/11 00:34:51;;;;;;;8.32;5.80;;;;;;;;;;1996505;28;20159;-72
2022/01/11 00:36:00;;;;;;;10.70;7.00;;;;;;;;;;1996530;28;20158;-72
2022/01/11 00:36:59;;;;;;;9.45;6.70;;;;;;;;;;1996779;28;20240;-72
2022/01/11 00:37:58;;;;;;;9.93;6.60;;;;;;;;;;1996816;28;20201;-72
2022/01/11 00:38:57;;;;;;;9.23;6.77;;;;;;;;;;1996890;28;20444;-72
2022/01/11 00:39:56;;;;;;;9.40;7.07;;;;;;;;;;1996982;28;20457;-72
2022/01/11 00:40:56;;;;;;;12.90;6.83;;;;;;;;;;1996923;28;20401;-72
2022/01/11 00:41:55;;;;;;;10.20;5.50;;;;;;;;;;1996878;28;20492;-72
2022/01/11 00:42:58;;;;;;;11.90;6.30;;;;;;;;;;1996916;28;20541;-72
2022/01/11 00:43:57;;;;;;;10.57;6.57;;;;;;;;;;1996866;28;20448;-72
2022/01/11 00:44:56;;;;;;;9.83;6.03;;;;;;;;;;1996763;28;20169;-72
2022/01/11 00:45:56;;;;;;;10.57;5.60;;;;;;;;;;1996820;28;20461;-72
2022/01/11 00:46:55;;;;;;;9.15;5.80;;;;;;;;;;1996625;28;20436;-72
2022/01/11 00:47:55;;;;;;;8.30;5.85;;;;;;;;;;1996813;28;20169;-72
2022/01/11 00:48:53;;;;;;;8.23;6.22;;;;;;;;;;1996097;28;20186;-72
2022/01/11 00:49:53;;;;;;;10.67;6.80;;;;;;;;;;1996268;28;20182;-72
2022/01/11 00:50:53;;;;;;;9.55;6.20;;;;;;;;;;1996817;28;20495;-72
2022/01/11 00:51:52;;;;;;;8.32;6.07;;;;;;;;;;1996730;28;20180;-72
2022/01/11 00:52:51;;;;;;;10.30;6.70;;;;;;;;;;1996813;28;20543;-72
2022/01/11 00:53:50;;;;;;;10.10;6.38;;;;;;;;;;1996781;28;20821;-72
2022/01/11 00:54:49;;;;;;;10.27;5.70;;;;;;;;;;1996608;28;20238;-72
2022/01/11 00:55:48;;;;;;;9.13;6.30;;;;;;;;;;1996794;28;20872;-72
2022/01/11 00:56:47;;;;;;;10.30;6.40;;;;;;;;;;1996614;28;20428;-72
2022/01/11 00:57:46;;;;;;;8.27;5.63;;;;;;;;;;1996756;28;20173;-72
2022/01/11 00:58:46;;;;;;;10.27;6.73;;;;;;;;;;1996729;28;20487;-72
2022/01/11 00:59:44;;;;;;;11.70;6.30;;;;;;;;;;1995943;28;20441;-72
2022/01/11 01:00:44;;;;;;;9.00;6.20;;;;;;;;;;1996107;28;20185;-72
2022/01/11 01:01:43;;;;;;;8.98;6.40;;;;;;;;;;1996618;28;20413;-72
2022/01/11 01:02:42;;;;;;;9.20;6.40;;;;;;;;;;1996705;28;20169;-72
2022/01/11 01:03:41;;;;;;;9.38;6.25;;;;;;;;;;1996679;28;20424;-72
2022/01/11 01:04:40;;;;;;;9.70;6.20;;;;;;;;;;1996701;28;20165;-72
2022/01/11 01:05:40;;;;;;;9.50;6.53;;;;;;;;;;1996737;28;20412;-72
2022/01/11 01:06:41;;;;;;;8.80;5.93;;;;;;;;;;1996681;28;20421;-72
2022/01/11 01:07:40;;;;;;;8.20;5.65;;;;;;;;;;1996760;28;20166;-72
2022/01/11 01:08:39;;;;;;;8.40;6.20;;;;;;;;;;1995937;28;20276;-72
2022/01/11 01:10:26;;;;;;;10.23;6.80;;;;;;;;;;1996071;28;20416;-72
2022/01/11 01:11:01;;;;;;;10.00;6.28;;;;;;;;;;1991103;28;20412;-72
2022/01/11 01:12:00;;;;;;;9.40;6.87;;;;;;;;;;1996659;28;20257;-72
2022/01/11 01:12:59;;;;;;;8.63;5.80;;;;;;;;;;1996655;28;20401;-72
2022/01/11 01:13:58;;;;;;;9.35;6.40;;;;;;;;;;1996803;28;20401;-72
2022/01/11 01:14:57;;;;;;;9.20;5.72;;;;;;;;;;1996926;28;20236;-72
2022/01/11 01:15:57;;;;;;;9.20;6.30;;;;;;;;;;1996825;28;20180;-72
2022/01/11 01:16:56;;;;;;;11.80;6.65;;;;;;;;;;1996546;28;20200;-72
2022/01/11 01:17:55;;;;;;;11.20;6.40;;;;;;;;;;1996015;28;20180;-72
2022/01/11 01:18:54;;;;;;;8.10;5.63;;;;;;;;;;1996241;28;20409;-72
2022/01/11 01:19:53;;;;;;;11.73;6.10;;;;;;;;;;1996579;28;20590;-72
2022/01/11 01:20:53;;;;;;;9.37;5.80;;;;;;;;;;1996662;28;20397;-72
2022/01/11 01:21:53;;;;;;;7.70;5.93;;;;;;;;;;1996701;28;20456;-72
2022/01/11 01:22:52;;;;;;;9.85;6.22;;;;;;;;;;1996676;28;20637;-72
2022/01/11 01:23:51;;;;;;;7.70;5.53;;;;;;;;;;1996769;28;20177;-72
2022/01/11 01:24:50;;;;;;;10.70;5.33;;;;;;;;;;1996627;28;20409;-72
2022/01/11 01:25:49;;;;;;;9.40;6.13;;;;;;;;;;1996643;28;20404;-72
2022/01/11 01:26:48;;;;;;;9.00;5.95;;;;;;;;;;1996529;28;20421;-72
2022/01/11 01:27:48;;;;;;;7.50;5.25;;;;;;;;;;2003976;28;20185;-72
2022/01/11 01:28:50;;;;;;;9.98;5.57;;;;;;;;;;2003878;28;20544;-72
2022/01/11 01:29:49;;;;;;;10.02;6.07;;;;;;;;;;1996106;28;20174;-72
2022/01/11 01:30:48;;;;;;;9.40;5.97;;;;;;;;;;1996784;28;20252;-72
2022/01/11 01:31:47;;;;;;;8.13;5.72;;;;;;;;;;1996661;28;20401;-72
2022/01/11 01:32:49;;;;;;;9.43;5.53;;;;;;;;;;1996684;28;20265;-72
2022/01/11 01:33:48;;;;;;;10.95;5.93;;;;;;;;;;1996697;28;20405;-72
2022/01/11 01:34:49;;;;;;;8.05;6.05;;;;;;;;;;1996534;28;20221;-72
2022/01/11 01:35:56;;;;;;;6.93;5.50;;;;;;;;;;1996598;28;20174;-72
2022/01/11 01:36:55;;;;;;;8.15;5.50;;;;;;;;;;1996586;28;20495;-72
2022/01/11 01:37:54;;;;;;;7.60;5.63;;;;;;;;;;1996673;28;20200;-72
2022/01/11 01:38:53;;;;;;;9.03;5.93;;;;;;;;;;1996741;28;20436;-72
2022/01/11 01:39:52;;;;;;;8.10;5.60;;;;;;;;;;1996538;28;20515;-72
2022/01/11 01:40:51;;;;;;;7.50;5.07;;;;;;;;;;1996651;28;20869;-72
2022/01/11 01:41:51;;;;;;;7.95;5.43;;;;;;;;;;1995883;28;20417;-72
2022/01/11 01:42:51;;;;;;;7.55;5.25;;;;;;;;;;1996056;28;20253;-72
2022/01/11 01:43:53;;;;;;;9.73;5.78;;;;;;;;;;1996609;28;20576;-72
2022/01/11 01:44:52;;;;;;;8.20;5.30;;;;;;;;;;1996563;28;20213;-72
2022/01/11 01:45:52;;;;;;;7.20;5.20;;;;;;;;;;1996554;28;20224;-72
2022/01/11 01:46:51;;;;;;;9.10;5.75;;;;;;;;;;1996703;28;20284;-72
2022/01/11 01:47:56;;;;;;;8.43;5.80;;;;;;;;;;1997959;28;20178;-72
2022/01/11 01:48:59;;;;;;;8.13;5.18;;;;;;;;;;1998296;28;20477;-72
2022/01/11 01:49:58;;;;;;;6.97;4.95;;;;;;;;;;1998058;28;20201;-72
2022/01/11 01:50:58;;;;;;;7.68;5.75;;;;;;;;;;1997416;28;20178;-72
2022/01/11 01:51:56;;;;;;;8.95;5.72;;;;;;;;;;1997445;28;20177;-72
2022/01/11 01:52:57;;;;;;;7.13;5.97;;;;;;;;;;1998044;28;20209;-72
2022/01/11 01:53:56;;;;;;;9.07;5.10;;;;;;;;;;1998104;28;20413;-72
2022/01/11 01:54:56;;;;;;;7.00;5.63;;;;;;;;;;1997944;28;20229;-72
2022/01/11 01:55:55;;;;;;;9.85;6.15;;;;;;;;;;1998131;28;20684;-72
2022/01/11 01:56:54;;;;;;;7.57;5.63;;;;;;;;;;1997975;28;20198;-72
2022/01/11 01:57:53;;;;;;;6.97;5.23;;;;;;;;;;1998067;28;20236;-72
2022/01/11 01:58:52;;;;;;;7.70;5.22;;;;;;;;;;1998133;28;20413;-72
2022/01/11 01:59:51;;;;;;;9.33;5.87;;;;;;;;;;1997967;28;20676;-72
2022/01/11 02:01:02;;;;;;;6.93;5.77;;;;;;;;;;1998075;28;20397;-72
2022/01/11 02:02:01;;;;;;;6.78;5.50;;;;;;;;;;1997972;28;20464;-72
2022/01/11 02:03:11;;;;;;;8.48;5.40;;;;;;;;;;1997385;28;20177;-72
2022/01/11 02:04:10;;;;;;;7.35;5.00;;;;;;;;;;1997408;28;20165;-72
2022/01/11 02:05:09;;;;;;;8.65;5.57;;;;;;;;;;1989691;28;20174;-72
2022/01/11 02:06:09;;;;;;;7.82;5.22;;;;;;;;;;1997195;28;20582;-72
2022/01/11 02:07:08;;;;;;;5.90;4.60;;;;;;;;;;1997963;28;20637;-72
2022/01/11 02:08:08;;;;;;;8.93;5.53;;;;;;;;;;1998078;28;20169;-72
2022/01/11 02:09:07;;;;;;;10.35;5.10;;;;;;;;;;1998060;28;20209;-72
2022/01/11 02:10:07;;;;;;;8.37;6.20;;;;;;;;;;1998020;28;20230;-72
2022/01/11 02:11:06;;;;;;;7.32;5.22;;;;;;;;;;1998054;28;20455;-72
2022/01/11 02:12:06;;;;;;;7.43;5.25;;;;;;;;;;1997286;28;20663;-72
2022/01/11 02:13:08;;;;;;;8.80;5.07;;;;;;;;;;1997555;28;20192;-72
2022/01/11 02:14:07;;;;;;;6.97;4.82;;;;;;;;;;1997331;28;20173;-72
2022/01/11 02:15:06;;;;;;;7.18;5.57;;;;;;;;;;1997946;28;20256;-72
2022/01/11 02:16:05;;;;;;;8.85;5.30;;;;;;;;;;1997840;28;20178;-72
2022/01/11 02:17:05;;;;;;;7.55;5.72;;;;;;;;;;1997931;28;20201;-72
2022/01/11 02:18:07;;;;;;;6.75;4.65;;;;;;;;;;1998053;28;20656;-72
2022/01/11 02:19:06;;;;;;;7.18;5.25;;;;;;;;;;1997985;28;20591;-72
2022/01/11 02:20:05;;;;;;;10.53;5.93;;;;;;;;;;1997780;28;20197;-72
2022/01/11 02:21:04;;;;;;;9.25;5.45;;;;;;;;;;1997889;28;20825;-72
2022/01/11 02:22:03;;;;;;;9.00;5.47;;;;;;;;;;1997902;28;20170;-72
2022/01/11 02:23:03;;;;;;;7.90;5.40;;;;;;;;;;1997219;28;20448;-72
2022/01/11 02:24:02;;;;;;;7.60;5.25;;;;;;;;;;1997511;28;20213;-72
2022/01/11 02:25:01;;;;;;;6.07;5.00;;;;;;;;;;1998029;28;20202;-72
2022/01/11 02:26:00;;;;;;;7.23;5.10;;;;;;;;;;1997822;28;20484;-72
2022/01/11 02:26:59;;;;;;;6.47;4.85;;;;;;;;;;1997887;28;20934;-72
2022/01/11 02:27:58;;;;;;;6.43;4.90;;;;;;;;;;1997306;28;20182;-72
2022/01/11 02:28:57;;;;;;;6.70;5.63;;;;;;;;;;1997406;28;20417;-72
2022/01/11 02:29:56;;;;;;;7.30;5.72;;;;;;;;;;1997881;28;20409;-72
2022/01/11 02:30:56;;;;;;;6.47;5.00;;;;;;;;;;1997937;28;20184;-72
2022/01/11 02:31:55;;;;;;;6.85;4.93;;;;;;;;;;1997945;28;20571;-72
2022/01/11 02:32:54;;;;;;;7.80;5.27;;;;;;;;;;1997773;28;20177;-72
2022/01/11 02:33:57;;;;;;;7.23;4.50;;;;;;;;;;1997791;28;20444;-72
2022/01/11 02:34:56;;;;;;;7.72;5.47;;;;;;;;;;1998098;28;20471;-72
2022/01/11 02:35:54;;;;;;;7.60;5.57;;;;;;;;;;1997978;28;20185;-71
2022/01/11 02:36:53;;;;;;;6.67;5.13;;;;;;;;;;1997846;28;20448;-72
2022/01/11 02:37:52;;;;;;;6.03;4.73;;;;;;;;;;1997935;28;20405;-72
2022/01/11 02:38:53;;;;;;;8.53;6.20;;;;;;;;;;1997920;28;20787;-72
2022/01/11 02:39:51;;;;;;;7.03;5.20;;;;;;;;;;1997884;28;20460;-72
2022/01/11 02:40:50;;;;;;;7.23;5.23;;;;;;;;;;1998014;28;20174;-72
2022/01/11 02:41:51;;;;;;;6.80;4.70;;;;;;;;;;1997193;28;20508;-72
2022/01/11 02:42:50;;;;;;;7.35;4.80;;;;;;;;;;1997381;28;20177;-72
2022/01/11 02:43:49;;;;;;;8.53;5.90;;;;;;;;;;1998052;28;20206;-72
2022/01/11 02:44:48;;;;;;;7.70;5.00;;;;;;;;;;1997916;28;20405;-72
2022/01/11 02:45:47;;;;;;;6.57;5.07;;;;;;;;;;1998106;28;20522;-72
2022/01/11 02:46:46;;;;;;;6.50;4.90;;;;;;;;;;1998167;28;20424;-72
2022/01/11 02:47:47;;;;;;;6.90;5.17;;;;;;;;;;1998003;28;20401;-72
2022/01/11 02:48:49;;;;;;;8.95;4.63;;;;;;;;;;1997839;28;20488;-72
2022/01/11 02:49:48;;;;;;;9.07;5.78;;;;;;;;;;1998760;28;20178;-72
2022/01/11 02:50:47;;;;;;;6.63;5.30;;;;;;;;;;1998626;28;20534;-72
2022/01/11 02:51:46;;;;;;;7.13;4.63;;;;;;;;;;1998437;28;20757;-71
2022/01/11 02:52:45;;;;;;;5.70;4.63;;;;;;;;;;1998458;28;20261;-72
2022/01/11 02:53:45;;;;;;;8.07;4.65;;;;;;;;;;1998467;28;20394;-74
2022/01/11 02:54:44;;;;;;;6.63;4.55;;;;;;;;;;1998413;28;20308;-72
2022/01/11 02:55:43;;;;;;;4.97;4.20;;;;;;;;;;1999136;28;20229;-72
2022/01/11 02:56:42;;;;;;;6.13;4.53;;;;;;;;;;1998370;28;20465;-72
2022/01/11 02:57:41;;;;;;;6.53;4.53;;;;;;;;;;1998498;28;20413;-73
2022/01/11 02:58:40;;;;;;;7.03;4.47;;;;;;;;;;1998495;28;20409;-72
2022/01/11 02:59:39;;;;;;;8.98;4.80;;;;;;;;;;2004955;28;20416;-72
2022/01/11 03:00:38;;;;;;;7.57;4.60;;;;;;;;;;2006659;28;20177;-72
2022/01/11 03:01:37;;;;;;;6.70;5.40;;;;;;;;;;2006291;28;20409;-72
2022/01/11 03:02:36;;;;;;;7.60;5.20;;;;;;;;;;2006261;28;20238;-72
2022/01/11 03:03:35;;;;;;;5.80;4.57;;;;;;;;;;2005278;28;20413;-72
2022/01/11 03:04:34;;;;;;;8.20;4.78;;;;;;;;;;2004024;28;20401;-72
2022/01/11 03:05:33;;;;;;;6.03;4.67;;;;;;;;;;2006317;28;20201;-71
2022/01/11 03:06:32;;;;;;;7.97;5.23;;;;;;;;;;2005714;28;20420;-72
2022/01/11 03:07:31;;;;;;;7.30;4.90;;;;;;;;;;2006246;28;20389;-71
2022/01/11 03:08:31;;;;;;;7.73;5.17;;;;;;;;;;2005110;28;20465;-71
2022/01/11 03:09:40;;;;;;;6.47;4.07;;;;;;;;;;2002726;28;20398;-72
2022/01/11 03:10:39;;;;;;;8.60;4.70;;;;;;;;;;2004972;28;20150;-71
2022/01/11 03:11:40;;;;;;;8.68;5.25;;;;;;;;;;2005218;28;20228;-72
2022/01/11 03:12:40;;;;;;;5.43;4.70;;;;;;;;;;2005193;28;20177;-71
2022/01/11 03:13:41;;;;;;;6.90;4.47;;;;;;;;;;2003449;28;20165;-71
2022/01/11 03:14:40;;;;;;;7.45;5.00;;;;;;;;;;2004468;28;20165;-71
2022/01/11 03:15:39;;;;;;;7.57;5.30;;;;;;;;;;2002311;28;20626;-72
2022/01/11 03:16:38;;;;;;;7.50;4.65;;;;;;;;;;1997558;28;20485;-71
2022/01/11 03:17:38;;;;;;;8.53;5.03;;;;;;;;;;1997665;28;20174;-72
2022/01/11 03:18:37;;;;;;;8.65;5.50;;;;;;;;;;1997532;28;20409;-72
2022/01/11 03:19:36;;;;;;;4.90;4.40;;;;;;;;;;1997455;28;20700;-72
2022/01/11 03:20:35;;;;;;;9.30;5.50;;;;;;;;;;1997700;28;20405;-72
2022/01/11 03:21:34;;;;;;;6.88;5.18;;;;;;;;;;1997626;28;20830;-71
2022/01/11 03:22:33;;;;;;;5.83;3.87;;;;;;;;;;1997631;28;20196;-73
2022/01/11 03:23:33;;;;;;;6.47;4.78;;;;;;;;;;1996794;28;20425;-73
2022/01/11 03:24:32;;;;;;;6.65;4.32;;;;;;;;;;1996891;28;20559;-72
2022/01/11 03:25:31;;;;;;;8.80;5.23;;;;;;;;;;1997515;28;20173;-72
2022/01/11 03:26:30;;;;;;;9.48;5.15;;;;;;;;;;1997597;28;20788;-72
2022/01/11 03:27:28;;;;;;;4.97;4.20;;;;;;;;;;1997513;28;20170;-72
2022/01/11 03:28:28;;;;;;;6.97;4.43;;;;;;;;;;1997617;28;20407;-72
2022/01/11 03:29:28;;;;;;;7.75;5.20;;;;;;;;;;1998066;28;20403;-72
2022/01/11 03:30:27;;;;;;;5.65;4.45;;;;;;;;;;1998060;28;20173;-72
2022/01/11 03:31:27;;;;;;;7.60;5.10;;;;;;;;;;2005948;28;20201;-71
2022/01/11 03:32:26;;;;;;;7.38;4.47;;;;;;;;;;2000193;28;20196;-72
2022/01/11 03:33:25;;;;;;;6.07;4.93;;;;;;;;;;1997593;28;20542;-71
2022/01/11 03:34:23;;;;;;;6.83;4.90;;;;;;;;;;1997812;28;20436;-71
2022/01/11 03:35:23;;;;;;;6.50;4.30;;;;;;;;;;1997611;28;20475;-73
2022/01/11 03:36:22;;;;;;;8.70;5.20;;;;;;;;;;1997594;28;20901;-72
2022/01/11 03:37:21;;;;;;;8.63;4.40;;;;;;;;;;1997514;28;20592;-71
2022/01/11 03:38:22;;;;;;;5.90;4.60;;;;;;;;;;1997527;28;20451;-71
2022/01/11 03:39:21;;;;;;;8.15;4.95;;;;;;;;;;1997687;28;20889;-72
2022/01/11 03:40:22;;;;;;;9.30;4.83;;;;;;;;;;1997871;28;20260;-71
2022/01/11 03:41:21;;;;;;;13.68;4.88;;;;;;;;;;1997599;28;20413;-71
2022/01/11 03:42:20;;;;;;;8.98;5.55;;;;;;;;;;1998067;28;20177;-71
2022/01/11 03:43:22;;;;;;;6.07;4.28;;;;;;;;;;1997536;28;20577;-72
2022/01/11 03:44:20;;;;;;;10.02;5.10;;;;;;;;;;1998034;28;20216;-72
2022/01/11 03:45:21;;;;;;;6.30;4.23;;;;;;;;;;1998001;28;20170;-71
2022/01/11 03:46:20;;;;;;;7.93;4.70;;;;;;;;;;1997905;28;20393;-71
2022/01/11 03:47:19;;;;;;;9.10;4.73;;;;;;;;;;1997347;28;20177;-71
2022/01/11 03:48:18;;;;;;;6.43;4.10;;;;;;;;;;2002976;28;20404;-71
2022/01/11 03:49:17;;;;;;;7.60;4.57;;;;;;;;;;2005160;28;20481;-71
2022/01/11 03:50:17;;;;;;;6.20;4.40;;;;;;;;;;2005513;28;20401;-71
2022/01/11 03:51:15;;;;;;;7.07;4.78;;;;;;;;;;2005591;28;20449;-71
2022/01/11 03:52:14;;;;;;;5.97;4.40;;;;;;;;;;2001605;28;20170;-72
2022/01/11 03:53:16;;;;;;;6.50;4.00;;;;;;;;;;2005856;28;20401;-71
2022/01/11 03:54:22;;;;;;;6.30;4.30;;;;;;;;;;2005960;28;20135;-71
2022/01/11 03:55:31;;;;;;;7.85;5.03;;;;;;;;;;2005893;28;20179;-72
2022/01/11 03:56:30;;;;;;;6.18;4.45;;;;;;;;;;2004889;28;20190;-72
2022/01/11 03:57:30;;;;;;;8.60;4.53;;;;;;;;;;1999417;28;20189;-72
2022/01/11 03:58:29;;;;;;;6.70;4.25;;;;;;;;;;2005806;28;20473;-72
2022/01/11 03:59:28;;;;;;;6.23;4.43;;;;;;;;;;2004851;28;20169;-72
2022/01/11 04:00:27;;;;;;;7.27;5.30;;;;;;;;;;2005873;28;20472;-72
2022/01/11 04:01:26;;;;;;;5.83;4.07;;;;;;;;;;2005534;28;20422;-72
2022/01/11 04:02:25;;;;;;;6.00;4.30;;;;;;;;;;2005089;28;20413;-71
2022/01/11 04:03:24;;;;;;;6.38;4.25;;;;;;;;;;2005217;28;20405;-72
2022/01/11 04:04:23;;;;;;;5.33;4.53;;;;;;;;;;2005934;28;20173;-72
2022/01/11 04:05:22;;;;;;;6.00;4.07;;;;;;;;;;2005666;28;20436;-71
2022/01/11 04:06:21;;;;;;;7.77;4.53;;;;;;;;;;2005360;28;20408;-72
2022/01/11 04:07:20;;;;;;;7.80;4.60;;;;;;;;;;2002486;28;20830;-72
2022/01/11 04:08:19;;;;;;;7.20;4.32;;;;;;;;;;2002266;28;20785;-72
2022/01/11 04:09:19;;;;;;;5.87;4.17;;;;;;;;;;1997381;28;20161;-72
2022/01/11 04:10:18;;;;;;;6.00;3.72;;;;;;;;;;1996950;28;20401;-72
2022/01/11 04:11:17;;;;;;;6.17;4.00;;;;;;;;;;1996521;28;20610;-72
2022/01/11 04:12:16;;;;;;;7.13;4.53;;;;;;;;;;1997326;28;20758;-72
2022/01/11 04:13:15;;;;;;;6.13;4.40;;;;;;;;;;1997269;28;20415;-72
2022/01/11 04:14:14;;;;;;;6.97;4.77;;;;;;;;;;1997115;28;20551;-72
2022/01/11 04:15:13;;;;;;;7.93;4.97;;;;;;;;;;1997079;28;20409;-71
2022/01/11 04:16:12;;;;;;;5.87;4.30;;;;;;;;;;1996959;28;20409;-72
2022/01/11 04:17:11;;;;;;;6.83;5.03;;;;;;;;;;1996986;28;20865;-72
2022/01/11 04:18:10;;;;;;;7.35;4.78;;;;;;;;;;1997064;28;20761;-72
2022/01/11 04:19:09;;;;;;;7.50;4.73;;;;;;;;;;1997088;28;20196;-72
2022/01/11 04:20:08;;;;;;;6.87;4.83;;;;;;;;;;1997033;28;20471;-73
2022/01/11 04:21:07;;;;;;;7.05;4.88;;;;;;;;;;1996924;28;20429;-72
2022/01/11 04:22:07;;;;;;;5.82;4.55;;;;;;;;;;1997043;28;20173;-72
2022/01/11 04:23:09;;;;;;;7.20;4.28;;;;;;;;;;1996640;28;20170;-72
2022/01/11 04:24:11;;;;;;;6.00;4.05;;;;;;;;;;1996275;28;20220;-72
2022/01/11 04:25:10;;;;;;;5.90;4.50;;;;;;;;;;1996353;28;20181;-72
2022/01/11 04:26:09;;;;;;;5.72;4.18;;;;;;;;;;1996802;28;20174;-72
2022/01/11 04:27:14;;;;;;;7.25;4.45;;;;;;;;;;1996837;28;20184;-72
2022/01/11 04:28:13;;;;;;;8.77;5.43;;;;;;;;;;1996306;28;20256;-72
2022/01/11 04:29:12;;;;;;;7.00;4.77;;;;;;;;;;1996529;28;20268;-72
2022/01/11 04:30:12;;;;;;;5.50;3.95;;;;;;;;;;1996826;28;20889;-72
2022/01/11 04:31:11;;;;;;;7.85;4.47;;;;;;;;;;1996859;28;20185;-72
2022/01/11 04:32:10;;;;;;;6.17;4.20;;;;;;;;;;1996903;28;20206;-72
2022/01/11 04:33:08;;;;;;;5.53;4.10;;;;;;;;;;1996848;28;20401;-72
2022/01/11 04:34:08;;;;;;;8.57;4.60;;;;;;;;;;1996885;28;20397;-72
2022/01/11 04:35:07;;;;;;;6.63;4.78;;;;;;;;;;1996902;28;20440;-72
2022/01/11 04:36:07;;;;;;;8.38;4.10;;;;;;;;;;1996083;28;20182;-72
2022/01/11 04:37:06;;;;;;;7.15;4.53;;;;;;;;;;1996264;28;20512;-72
2022/01/11 04:38:05;;;;;;;5.07;3.87;;;;;;;;;;1996875;28;20200;-71
2022/01/11 04:39:05;;;;;;;6.00;4.33;;;;;;;;;;1996840;28;20455;-72
2022/01/11 04:40:04;;;;;;;7.28;4.45;;;;;;;;;;1996776;28;20470;-72
2022/01/11 04:41:03;;;;;;;7.97;5.00;;;;;;;;;;1996742;28;20169;-72
2022/01/11 04:42:02;;;;;;;8.00;4.40;;;;;;;;;;1996732;28;20178;-72
2022/01/11 04:43:01;;;;;;;7.50;4.70;;;;;;;;;;1996883;28;20170;-72
2022/01/11 04:44:00;;;;;;;5.93;4.10;;;;;;;;;;1996816;28;20392;-72
2022/01/11 04:44:59;;;;;;;6.10;4.17;;;;;;;;;;1996789;28;20757;-72
2022/01/11 04:45:58;;;;;;;7.10;4.67;;;;;;;;;;1996907;28;20455;-72
2022/01/11 04:46:57;;;;;;;6.88;4.25;;;;;;;;;;1996714;28;20487;-72
2022/01/11 04:47:56;;;;;;;7.10;4.47;;;;;;;;;;1996825;28;20264;-72
2022/01/11 04:48:56;;;;;;;5.97;4.20;;;;;;;;;;1996946;28;20408;-73
2022/01/11 04:49:55;;;;;;;8.07;5.05;;;;;;;;;;1996720;28;20180;-73
2022/01/11 04:50:54;;;;;;;7.40;5.03;;;;;;;;;;1996709;28;20184;-72
2022/01/11 04:51:54;;;;;;;6.20;4.27;;;;;;;;;;1996815;28;20877;-73
2022/01/11 04:52:53;;;;;;;6.55;4.40;;;;;;;;;;1996076;28;20510;-73
2022/01/11 04:53:52;;;;;;;9.87;4.27;;;;;;;;;;1996143;28;20257;-73
2022/01/11 04:54:53;;;;;;;5.90;4.45;;;;;;;;;;1996562;28;20850;-73
2022/01/11 04:55:53;;;;;;;6.95;4.45;;;;;;;;;;1996719;28;20668;-74
2022/01/11 04:56:52;;;;;;;7.15;4.10;;;;;;;;;;1996710;28;20225;-73
2022/01/11 04:57:50;;;;;;;6.23;4.67;;;;;;;;;;1996734;28;20169;-73
2022/01/11 04:58:49;;;;;;;6.87;4.33;;;;;;;;;;1996695;28;20938;-73
2022/01/11 04:59:48;;;;;;;6.07;3.77;;;;;;;;;;1996633;28;20440;-73
2022/01/11 05:00:48;;;;;;;5.67;4.10;;;;;;;;;;1996702;28;20527;-73
2022/01/11 05:01:47;;;;;;;6.60;4.30;;;;;;;;;;1996673;28;20405;-72
2022/01/11 05:02:46;;;;;;;5.97;3.92;;;;;;;;;;1996794;28;20625;-72
2022/01/11 05:03:45;;;;;;;5.97;4.38;;;;;;;;;;1996749;28;20181;-71
2022/01/11 05:04:44;;;;;;;6.50;4.10;;;;;;;;;;1996004;28;20251;-72
2022/01/11 05:05:43;;;;;;;9.53;4.77;;;;;;;;;;1996178;28;20412;-72
2022/01/11 05:06:42;;;;;;;8.43;4.20;;;;;;;;;;1996764;28;20435;-72
2022/01/11 05:07:41;;;;;;;8.07;4.50;;;;;;;;;;1996686;28;20833;-72
2022/01/11 05:08:40;;;;;;;7.93;4.65;;;;;;;;;;1996926;28;20408;-72
2022/01/11 05:09:39;;;;;;;6.80;4.20;;;;;;;;;;1996656;28;20174;-72
2022/01/11 05:10:42;;;;;;;4.70;4.00;;;;;;;;;;1996769;28;20405;-72
2022/01/11 05:11:41;;;;;;;7.45;4.00;;;;;;;;;;1996006;28;20445;-71
2022/01/11 05:12:40;;;;;;;6.23;4.30;;;;;;;;;;1996284;28;20170;-72
2022/01/11 05:13:39;;;;;;;5.87;3.97;;;;;;;;;;1996671;28;20405;-73
2022/01/11 05:14:38;;;;;;;5.57;4.50;;;;;;;;;;1996694;28;20416;-72
2022/01/11 05:15:36;;;;;;;6.53;4.13;;;;;;;;;;1996554;28;20413;-72
2022/01/11 05:16:35;;;;;;;8.07;5.23;;;;;;;;;;1996533;28;20774;-71
2022/01/11 05:17:34;;;;;;;5.57;4.57;;;;;;;;;;1996618;28;20619;-72
2022/01/11 05:18:36;;;;;;;5.93;4.40;;;;;;;;;;1996008;28;20421;-72
2022/01/11 05:19:35;;;;;;;5.32;3.97;;;;;;;;;;1996119;28;20892;-72
2022/01/11 05:20:35;;;;;;;5.00;4.03;;;;;;;;;;1996604;28;20205;-73
2022/01/11 05:21:34;;;;;;;4.95;4.13;;;;;;;;;;1996704;28;20177;-73
2022/01/11 05:22:33;;;;;;;6.40;4.00;;;;;;;;;;1997939;28;20177;-73
2022/01/11 05:23:34;;;;;;;5.43;4.20;;;;;;;;;;1998709;28;20415;-73
2022/01/11 05:24:33;;;;;;;6.10;4.20;;;;;;;;;;1999258;28;20918;-73
2022/01/11 05:25:32;;;;;;;9.90;5.03;;;;;;;;;;1998622;28;20601;-73
2022/01/11 05:26:31;;;;;;;6.57;4.55;;;;;;;;;;1998498;28;20440;-73
2022/01/11 05:27:30;;;;;;;8.73;4.57;;;;;;;;;;1999210;28;20180;-73
2022/01/11 05:28:29;;;;;;;8.45;4.57;;;;;;;;;;1999163;28;20507;-73
2022/01/11 05:29:31;;;;;;;4.47;3.40;;;;;;;;;;1999261;28;20180;-73
2022/01/11 05:30:30;;;;;;;5.72;4.20;;;;;;;;;;1999232;28;20200;-72
2022/01/11 05:31:29;;;;;;;7.68;4.60;;;;;;;;;;1998499;28;20185;-72
2022/01/11 05:32:30;;;;;;;6.20;3.87;;;;;;;;;;1998652;28;20207;-72
2022/01/11 05:33:29;;;;;;;6.00;4.15;;;;;;;;;;1999144;28;20401;-72
2022/01/11 05:34:28;;;;;;;7.67;4.50;;;;;;;;;;1999226;28;20188;-72
2022/01/11 05:35:27;;;;;;;12.00;4.97;;;;;;;;;;1999204;28;20401;-72
2022/01/11 05:36:27;;;;;;;6.97;4.23;;;;;;;;;;1999240;28;20950;-72
2022/01/11 05:37:26;;;;;;;8.00;4.57;;;;;;;;;;1999077;28;20504;-72
2022/01/11 05:38:25;;;;;;;9.47;4.93;;;;;;;;;;1999231;28;20170;-72
2022/01/11 05:39:24;;;;;;;7.75;4.15;;;;;;;;;;1999179;28;20428;-72
2022/01/11 05:40:23;;;;;;;7.00;4.20;;;;;;;;;;1999204;28;20673;-72
2022/01/11 05:41:21;;;;;;;8.87;4.27;;;;;;;;;;1999099;28;20841;-71
2022/01/11 05:42:22;;;;;;;4.00;3.33;;;;;;;;;;1998458;28;20696;-72
2022/01/11 05:43:21;;;;;;;10.57;4.63;;;;;;;;;;1998577;28;20832;-71
2022/01/11 05:44:20;;;;;;;6.07;3.83;;;;;;;;;;1999280;28;20170;-71
2022/01/11 05:45:19;;;;;;;6.28;4.35;;;;;;;;;;1999187;28;20768;-72
2022/01/11 05:46:18;;;;;;;6.22;4.60;;;;;;;;;;1999113;28;20181;-72
2022/01/11 05:47:17;;;;;;;8.60;4.33;;;;;;;;;;1999172;28;20652;-72
2022/01/11 05:48:16;;;;;;;5.53;4.30;;;;;;;;;;2006465;28;20404;-71
2022/01/11 05:49:15;;;;;;;8.40;4.27;;;;;;;;;;2006381;28;20396;-72
2022/01/11 05:50:15;;;;;;;6.23;4.53;;;;;;;;;;1999353;28;20415;-71
2022/01/11 05:51:17;;;;;;;6.15;4.38;;;;;;;;;;1999061;28;20815;-71
2022/01/11 05:52:16;;;;;;;7.18;3.90;;;;;;;;;;1999095;28;20170;-72
2022/01/11 05:53:15;;;;;;;7.80;5.37;;;;;;;;;;1999156;28;20174;-72
2022/01/11 05:54:14;;;;;;;7.40;4.85;;;;;;;;;;1998984;28;20409;-72
2022/01/11 05:55:13;;;;;;;4.87;3.90;;;;;;;;;;1999243;28;20190;-72
2022/01/11 05:56:12;;;;;;;6.75;3.80;;;;;;;;;;1998423;28;20416;-72
2022/01/11 05:57:11;;;;;;;5.57;3.90;;;;;;;;;;1998791;28;20660;-71
2022/01/11 05:58:10;;;;;;;6.15;4.65;;;;;;;;;;1999015;28;20774;-71
2022/01/11 05:59:09;;;;;;;6.33;4.37;;;;;;;;;;1998443;28;20172;-71
2022/01/11 06:00:10;;;;;;;6.23;4.20;;;;;;;;;;1998492;28;20968;-71